Time;durP1;ratioP1;P1;durP2;ratioP2;P2;SDS_P1;SDS_P2;PMS_P1;PMS_P2;Temp;Humidity;BMP_temperature;BMP_pressure;BME280_temperature;BME280_humidity;BME280_pressure;Samples;Min_cycle;Max_cycle;Signal;HPM_P1;HPM_P2
2023/10/23 00:00:49;;;;;;;3.47;2.20;;;14.80;99.90;;;;;;5096433;28;20481;-83
2023/10/23 00:03:16;;;;;;;2.83;1.80;;;14.80;99.90;;;;;;5095889;28;20480;-80
2023/10/23 00:05:46;;;;;;;4.50;1.80;;;14.80;99.90;;;;;;5095352;28;20511;-79
2023/10/23 00:08:13;;;;;;;1.10;1.00;;;14.70;99.90;;;;;;5096236;28;20472;-79
2023/10/23 00:10:41;;;;;;;2.00;1.40;;;14.70;99.90;;;;;;5095865;28;20477;-80
2023/10/23 00:13:07;;;;;;;1.33;1.23;;;14.70;99.90;;;;;;5095824;28;20473;-80
2023/10/23 00:15:39;;;;;;;1.23;1.13;;;14.70;99.90;;;;;;5094853;28;20656;-83
2023/10/23 00:18:08;;;;;;;2.50;1.37;;;14.70;99.90;;;;;;5086794;28;20549;-80
2023/10/23 00:20:35;;;;;;;0.87;0.87;;;14.70;99.90;;;;;;5094804;28;20480;-79
2023/10/23 00:23:02;;;;;;;1.80;1.70;;;14.70;99.90;;;;;;5095820;28;20496;-80
2023/10/23 00:25:33;;;;;;;2.53;1.70;;;14.60;99.90;;;;;;5095286;28;20501;-80
2023/10/23 00:28:02;;;;;;;1.77;1.67;;;14.60;99.90;;;;;;5095450;28;20465;-80
2023/10/23 00:30:34;;;;;;;1.40;1.20;;;14.60;99.90;;;;;;5095342;28;20538;-79
2023/10/23 00:33:14;;;;;;;2.07;1.33;;;14.60;99.90;;;;;;5085188;28;20951;-80
2023/10/23 00:36:31;;;;;;;1.77;1.60;;;14.60;99.90;;;;;;5083948;28;20821;-80
2023/10/23 00:38:58;;;;;;;6.00;2.93;;;14.60;99.90;;;;;;5086170;28;20530;-83
2023/10/23 00:41:25;;;;;;;4.30;3.90;;;14.50;99.90;;;;;;5096383;28;20473;-83
2023/10/23 00:43:52;;;;;;;5.20;4.40;;;14.50;99.90;;;;;;5096374;28;20536;-83
2023/10/23 00:46:22;;;;;;;6.20;5.60;;;14.50;99.90;;;;;;5096870;28;20470;-83
2023/10/23 00:48:52;;;;;;;5.57;4.00;;;14.40;99.90;;;;;;5095248;28;20469;-82
2023/10/23 00:51:20;;;;;;;3.40;3.10;;;14.40;99.90;;;;;;5095031;28;20562;-84
2023/10/23 00:53:47;;;;;;;2.67;1.97;;;14.40;99.90;;;;;;5094940;28;20963;-80
2023/10/23 00:56:14;;;;;;;2.37;2.17;;;14.40;99.90;;;;;;5095493;28;20862;-78
2023/10/23 00:58:42;;;;;;;2.50;2.10;;;14.30;99.90;;;;;;5083810;28;20534;-83
2023/10/23 01:01:11;;;;;;;2.63;1.73;;;14.30;99.90;;;;;;5094803;28;20544;-83
2023/10/23 01:03:42;;;;;;;1.93;1.73;;;14.30;99.90;;;;;;5094899;28;20963;-79
2023/10/23 01:06:12;;;;;;;1.40;1.30;;;14.30;99.90;;;;;;5095034;28;20799;-83
2023/10/23 01:08:39;;;;;;;1.60;1.50;;;14.30;99.90;;;;;;5094626;28;21203;-82
2023/10/23 01:11:06;;;;;;;1.73;1.50;;;14.20;99.90;;;;;;5095119;28;20552;-85
2023/10/23 01:13:34;;;;;;;1.33;1.23;;;14.20;99.90;;;;;;5066127;28;20475;-82
2023/10/23 01:16:01;;;;;;;1.40;1.30;;;14.30;99.90;;;;;;5074732;28;20553;-79
2023/10/23 01:18:27;;;;;;;2.20;1.57;;;14.20;99.90;;;;;;5074076;28;20471;-80
2023/10/23 01:20:54;;;;;;;1.70;1.60;;;14.20;99.90;;;;;;5065659;28;20562;-83
2023/10/23 01:23:27;;;;;;;1.53;1.20;;;14.20;99.90;;;;;;5065081;28;20482;-83
2023/10/23 01:25:57;;;;;;;3.50;1.50;;;14.20;99.90;;;;;;5074140;28;20462;-80
2023/10/23 01:28:24;;;;;;;1.53;1.43;;;14.10;99.90;;;;;;5074265;28;20550;-80
2023/10/23 01:30:51;;;;;;;3.67;1.30;;;14.10;99.90;;;;;;5071102;28;20983;-83
2023/10/23 01:33:18;;;;;;;2.10;1.70;;;14.10;99.90;;;;;;5069350;28;20505;-80
2023/10/23 01:35:45;;;;;;;1.87;1.73;;;14.10;99.90;;;;;;5073809;28;20482;-80
2023/10/23 01:38:14;;;;;;;1.70;1.60;;;14.10;99.90;;;;;;5074452;28;20978;-83
2023/10/23 01:40:41;;;;;;;2.23;2.10;;;14.00;99.90;;;;;;5073956;28;20523;-80
2023/10/23 01:43:09;;;;;;;2.27;1.97;;;14.00;99.90;;;;;;5073997;28;20486;-83
2023/10/23 01:45:36;;;;;;;2.23;1.80;;;14.00;99.90;;;;;;5073424;28;20483;-80
2023/10/23 01:48:03;;;;;;;2.70;1.70;;;14.00;99.90;;;;;;5074303;28;20462;-83
2023/10/23 01:50:30;;;;;;;2.13;1.93;;;14.00;99.90;;;;;;5074060;28;20505;-80
2023/10/23 01:52:57;;;;;;;2.63;1.87;;;14.00;99.90;;;;;;5073574;28;20470;-80
2023/10/23 01:55:24;;;;;;;5.00;2.00;;;13.90;99.90;;;;;;5073285;28;20557;-83
2023/10/23 01:57:51;;;;;;;2.53;1.67;;;13.90;99.90;;;;;;5073311;28;21029;-83
2023/10/23 02:00:19;;;;;;;2.47;2.27;;;13.90;99.90;;;;;;5074135;28;20880;-80
2023/10/23 02:02:46;;;;;;;2.50;1.90;;;13.90;99.90;;;;;;5073408;28;20505;-83
2023/10/23 02:05:13;;;;;;;1.87;1.47;;;13.90;99.90;;;;;;5074014;28;20466;-80
2023/10/23 02:07:40;;;;;;;1.80;1.70;;;13.90;99.90;;;;;;5073204;28;20527;-83
2023/10/23 02:10:08;;;;;;;2.30;2.10;;;13.90;99.90;;;;;;5073201;28;20532;-80
2023/10/23 02:12:35;;;;;;;3.27;2.47;;;13.90;99.90;;;;;;5073311;28;20796;-79
2023/10/23 02:15:04;;;;;;;5.57;4.10;;;13.90;99.90;;;;;;5073579;28;20832;-83
2023/10/23 02:17:32;;;;;;;3.20;3.00;;;13.90;99.90;;;;;;5073494;28;20972;-83
2023/10/23 02:19:59;;;;;;;2.87;2.60;;;13.90;99.90;;;;;;5073165;28;20454;-83
2023/10/23 02:22:27;;;;;;;2.07;1.87;;;13.90;99.90;;;;;;5073490;28;20471;-80
2023/10/23 02:25:10;;;;;;;1.87;1.63;;;13.90;99.90;;;;;;5072370;28;20972;-80
2023/10/23 02:27:37;;;;;;;2.13;1.73;;;13.90;99.90;;;;;;5071109;28;20466;-83
2023/10/23 02:30:05;;;;;;;1.40;1.30;;;13.90;99.90;;;;;;5073605;28;20515;-80
2023/10/23 02:32:34;;;;;;;2.30;1.37;;;13.90;99.90;;;;;;5072615;28;20459;-80
2023/10/23 02:35:01;;;;;;;1.80;1.50;;;13.90;99.90;;;;;;5073096;28;20474;-83
2023/10/23 02:37:28;;;;;;;2.40;1.50;;;13.90;99.90;;;;;;5072792;28;20478;-83
2023/10/23 02:39:56;;;;;;;2.03;1.50;;;13.90;99.90;;;;;;5073417;28;20803;-83
2023/10/23 02:42:22;;;;;;;2.43;1.80;;;13.90;99.90;;;;;;5072451;28;20474;-80
2023/10/23 02:44:50;;;;;;;2.63;1.90;;;13.90;99.90;;;;;;5073301;28;20534;-80
2023/10/23 02:47:17;;;;;;;2.37;1.60;;;13.90;99.90;;;;;;5073511;28;20528;-80
2023/10/23 02:49:46;;;;;;;1.87;1.67;;;13.90;99.90;;;;;;5072767;28;20447;-80
2023/10/23 02:52:13;;;;;;;1.90;1.80;;;13.90;99.90;;;;;;5073176;28;20951;-80
2023/10/23 02:54:42;;;;;;;3.03;1.60;;;13.90;99.90;;;;;;5072750;28;20528;-83
2023/10/23 02:57:09;;;;;;;1.80;1.70;;;13.90;99.90;;;;;;5073170;28;20490;-80
2023/10/23 02:59:36;;;;;;;3.53;2.33;;;13.90;99.90;;;;;;5072150;28;20490;-80
2023/10/23 03:02:03;;;;;;;1.80;1.70;;;13.90;99.90;;;;;;5071939;28;20508;-83
2023/10/23 03:04:36;;;;;;;1.87;1.60;;;13.90;99.90;;;;;;5072409;28;20524;-83
2023/10/23 03:07:04;;;;;;;2.80;2.30;;;13.90;99.90;;;;;;5073103;28;20490;-80
2023/10/23 03:09:31;;;;;;;2.37;1.80;;;13.80;99.90;;;;;;5072759;28;20528;-79
2023/10/23 03:11:58;;;;;;;3.43;2.00;;;13.80;99.90;;;;;;5072385;28;20814;-80
2023/10/23 03:14:25;;;;;;;2.60;1.80;;;13.80;99.90;;;;;;5072337;28;20527;-83
2023/10/23 03:16:52;;;;;;;2.87;1.70;;;13.80;99.90;;;;;;5073376;28;20600;-80
2023/10/23 03:19:22;;;;;;;2.00;1.83;;;13.80;99.90;;;;;;5072919;28;20861;-80
2023/10/23 03:21:49;;;;;;;1.90;1.67;;;13.80;99.90;;;;;;5072224;28;20450;-80
2023/10/23 03:24:18;;;;;;;2.07;1.93;;;13.80;99.90;;;;;;5072672;28;20470;-83
2023/10/23 03:26:45;;;;;;;1.80;1.53;;;13.70;99.90;;;;;;5071826;28;20455;-82
2023/10/23 03:29:12;;;;;;;2.40;1.73;;;13.70;99.90;;;;;;5072455;28;20474;-80
2023/10/23 03:31:39;;;;;;;2.40;1.70;;;13.70;99.90;;;;;;5072354;28;20227;-80
2023/10/23 03:34:06;;;;;;;1.73;1.63;;;13.70;99.90;;;;;;5072638;28;20490;-81
2023/10/23 03:36:32;;;;;;;2.50;2.30;;;13.70;99.90;;;;;;5072381;28;20865;-79
2023/10/23 03:38:59;;;;;;;2.63;2.03;;;13.70;99.90;;;;;;5072948;28;20467;-83
2023/10/23 03:41:31;;;;;;;2.30;1.97;;;13.60;99.90;;;;;;5072062;28;20505;-83
2023/10/23 03:44:01;;;;;;;2.17;1.97;;;13.60;99.90;;;;;;5075072;28;20466;-80
2023/10/23 03:46:28;;;;;;;2.80;1.93;;;13.60;99.90;;;;;;5075567;28;20474;-80
2023/10/23 03:48:56;;;;;;;2.80;2.60;;;13.60;99.90;;;;;;5076518;28;20474;-80
2023/10/23 03:51:23;;;;;;;2.30;2.10;;;13.60;99.90;;;;;;5076385;28;20474;-80
2023/10/23 03:53:50;;;;;;;2.00;1.90;;;13.50;99.90;;;;;;5075834;28;20920;-84
2023/10/23 03:56:17;;;;;;;1.95;1.80;;;13.60;99.90;;;;;;5076136;28;20470;-83
2023/10/23 03:58:46;;;;;;;2.80;2.33;;;13.50;99.90;;;;;;5086233;28;20231;-80
2023/10/23 04:01:13;;;;;;;4.83;2.70;;;13.50;99.90;;;;;;5096519;28;20488;-83
2023/10/23 04:03:40;;;;;;;2.90;2.70;;;13.50;99.90;;;;;;5096023;28;20473;-83
2023/10/23 04:06:07;;;;;;;2.70;2.50;;;13.50;99.90;;;;;;5096263;28;21020;-84
2023/10/23 04:08:34;;;;;;;3.83;2.70;;;13.50;99.90;;;;;;5095499;28;20223;-80
2023/10/23 04:11:01;;;;;;;3.23;2.93;;;13.40;99.90;;;;;;5096276;28;20550;-80
2023/10/23 04:13:28;;;;;;;3.80;2.20;;;13.40;99.90;;;;;;5096098;28;20493;-83
2023/10/23 04:15:58;;;;;;;2.70;2.50;;;13.40;99.90;;;;;;5095750;28;20494;-83
2023/10/23 04:18:26;;;;;;;2.83;2.63;;;13.40;99.90;;;;;;5095769;28;20473;-80
2023/10/23 04:21:05;;;;;;;4.00;2.63;;;13.40;99.90;;;;;;5094425;28;20243;-81
2023/10/23 04:23:32;;;;;;;5.77;2.83;;;13.40;99.90;;;;;;5095560;28;20511;-84
2023/10/23 04:26:00;;;;;;;6.85;3.40;;;13.30;99.90;;;;;;5085381;28;20512;-83
2023/10/23 04:28:27;;;;;;;3.23;2.83;;;13.30;99.90;;;;;;5095345;28;20673;-83
2023/10/23 04:30:56;;;;;;;2.95;2.75;;;13.30;99.90;;;;;;5094990;28;20560;-83
2023/10/23 04:33:23;;;;;;;3.83;2.80;;;13.30;99.90;;;;;;5086560;28;20219;-80
2023/10/23 04:35:51;;;;;;;3.50;3.20;;;13.30;99.90;;;;;;5095070;28;20545;-81
2023/10/23 04:38:45;;;;;;;3.37;3.07;;;13.30;99.90;;;;;;5095512;28;20465;-81
2023/10/23 04:41:13;;;;;;;3.50;3.20;;;13.30;99.90;;;;;;5039884;28;20537;-80
2023/10/23 04:43:42;;;;;;;3.63;3.33;;;13.30;99.90;;;;;;5095238;28;20501;-80
2023/10/23 04:46:10;;;;;;;4.53;3.83;;;13.30;99.90;;;;;;5095120;28;20484;-80
2023/10/23 04:48:37;;;;;;;4.13;3.70;;;13.30;99.90;;;;;;5095683;28;20474;-80
2023/10/23 04:51:06;;;;;;;5.03;3.90;;;13.30;99.90;;;;;;5094828;28;20223;-84
2023/10/23 04:53:33;;;;;;;4.28;3.40;;;13.20;99.90;;;;;;5095500;28;20545;-84
2023/10/23 04:56:00;;;;;;;5.23;4.07;;;13.20;99.90;;;;;;5093809;28;20224;-83
2023/10/23 04:58:27;;;;;;;4.70;4.00;;;13.20;99.90;;;;;;5095283;28;20535;-84
2023/10/23 05:00:54;;;;;;;5.30;3.27;;;13.20;99.90;;;;;;5094755;28;20545;-82
2023/10/23 05:03:22;;;;;;;7.82;4.32;;;13.20;99.90;;;;;;5095089;28;20500;-83
2023/10/23 05:05:49;;;;;;;5.68;4.43;;;13.20;99.90;;;;;;5094668;28;20255;-84
2023/10/23 05:08:19;;;;;;;4.87;4.40;;;13.20;99.90;;;;;;5095056;28;20677;-83
2023/10/23 05:10:46;;;;;;;4.53;3.77;;;13.20;99.90;;;;;;5095207;28;20540;-80
2023/10/23 05:13:13;;;;;;;8.37;4.60;;;13.10;99.90;;;;;;5094264;28;20457;-80
2023/10/23 05:15:40;;;;;;;5.13;4.03;;;13.10;99.90;;;;;;5082851;28;20570;-83
2023/10/23 05:18:09;;;;;;;8.10;6.97;;;13.10;99.90;;;;;;5094353;28;20493;-80
2023/10/23 05:20:37;;;;;;;9.82;7.70;;;13.10;99.90;;;;;;5094762;28;20461;-80
2023/10/23 05:23:04;;;;;;;8.17;7.37;;;13.10;99.90;;;;;;5093978;28;20219;-79
2023/10/23 05:25:47;;;;;;;6.30;5.70;;;13.10;99.90;;;;;;5094518;28;20920;-80
2023/10/23 05:28:14;;;;;;;6.63;5.90;;;13.10;99.90;;;;;;5083063;28;20534;-82
2023/10/23 05:30:41;;;;;;;8.13;5.67;;;13.10;99.90;;;;;;5094379;28;20469;-82
2023/10/23 05:33:09;;;;;;;6.53;5.30;;;13.10;99.90;;;;;;5094340;28;20847;-83
2023/10/23 05:35:37;;;;;;;7.90;6.65;;;13.10;99.90;;;;;;5101568;22;20215;-83
2023/10/23 05:38:05;;;;;;;8.07;5.17;;;13.00;99.90;;;;;;5093862;28;20470;-82
2023/10/23 05:40:31;;;;;;;5.18;4.78;;;13.00;99.90;;;;;;5083588;28;20490;-81
2023/10/23 05:42:59;;;;;;;5.47;4.97;;;13.00;99.90;;;;;;5094240;28;20231;-82
2023/10/23 05:45:26;;;;;;;6.68;5.70;;;13.00;99.90;;;;;;5093491;28;20488;-80
2023/10/23 05:47:53;;;;;;;7.10;6.20;;;13.00;99.90;;;;;;5094545;28;20219;-79
2023/10/23 05:50:21;;;;;;;6.47;5.80;;;13.00;99.90;;;;;;5082994;28;20493;-80
2023/10/23 05:52:49;;;;;;;5.70;5.20;;;13.00;99.90;;;;;;5093569;28;20461;-79
2023/10/23 05:55:16;;;;;;;5.38;4.78;;;12.90;99.90;;;;;;5093749;28;20325;-80
2023/10/23 05:57:43;;;;;;;5.63;4.93;;;12.90;99.90;;;;;;5094261;28;20227;-80
2023/10/23 06:00:12;;;;;;;5.38;4.15;;;12.90;99.90;;;;;;5093989;28;20261;-81
2023/10/23 06:02:39;;;;;;;5.43;4.93;;;12.90;99.90;;;;;;5093363;28;20595;-80
2023/10/23 06:05:09;;;;;;;4.68;4.25;;;12.90;99.90;;;;;;5093372;28;20318;-80
2023/10/23 06:07:36;;;;;;;5.15;4.75;;;12.90;99.90;;;;;;5093197;28;20348;-79
2023/10/23 06:10:04;;;;;;;5.03;4.53;;;12.90;99.90;;;;;;5093518;28;20318;-82
2023/10/23 06:12:31;;;;;;;4.63;4.23;;;12.90;99.90;;;;;;5083147;28;20227;-83
2023/10/23 06:14:58;;;;;;;5.83;4.53;;;12.90;99.90;;;;;;5093278;28;20858;-83
2023/10/23 06:17:25;;;;;;;5.57;4.97;;;12.90;99.90;;;;;;5093002;28;20511;-83
2023/10/23 06:19:52;;;;;;;4.65;4.20;;;12.90;99.90;;;;;;5093852;28;20227;-83
2023/10/23 06:22:19;;;;;;;5.55;5.05;;;12.90;99.90;;;;;;5093126;28;20223;-84
2023/10/23 06:24:46;;;;;;;6.37;5.77;;;12.90;99.90;;;;;;5093563;28;20612;-83
2023/10/23 06:27:15;;;;;;;7.32;5.95;;;12.90;99.90;;;;;;5082699;28;20461;-83
2023/10/23 06:29:42;;;;;;;5.25;4.75;;;12.90;99.90;;;;;;5082084;28;20677;-81
2023/10/23 06:32:11;;;;;;;5.55;5.15;;;13.00;99.90;;;;;;5093052;28;20253;-80
2023/10/23 06:34:38;;;;;;;6.38;5.22;;;13.00;99.90;;;;;;5092755;28;20231;-81
2023/10/23 06:37:05;;;;;;;7.47;5.20;;;13.00;99.90;;;;;;5093677;28;20613;-80
2023/10/23 06:39:33;;;;;;;5.40;4.90;;;13.00;99.90;;;;;;5093094;28;20527;-80
2023/10/23 06:42:00;;;;;;;7.40;6.07;;;13.00;99.90;;;;;;5093695;28;20518;-80
2023/10/23 06:44:36;;;;;;;12.73;5.97;;;13.00;99.90;;;;;;5093276;28;20545;-81
2023/10/23 06:47:03;;;;;;;5.13;4.65;;;13.00;99.90;;;;;;5087182;28;20461;-80
2023/10/23 06:49:30;;;;;;;5.85;5.28;;;13.00;99.90;;;;;;5092637;28;20254;-81
2023/10/23 06:52:02;;;;;;;8.33;6.70;;;13.00;99.90;;;;;;5092967;28;20230;-80
2023/10/23 06:54:31;;;;;;;7.28;5.80;;;13.00;99.90;;;;;;5114335;22;20447;-79
2023/10/23 06:56:58;;;;;;;7.47;5.70;;;13.00;99.90;;;;;;5073110;28;20303;-80
2023/10/23 06:59:25;;;;;;;6.68;5.70;;;13.00;99.90;;;;;;5072548;28;20564;-80
2023/10/23 07:01:53;;;;;;;7.45;5.70;;;13.00;99.90;;;;;;5073087;28;20303;-80
2023/10/23 07:04:22;;;;;;;9.07;6.07;;;13.10;99.90;;;;;;5074654;28;20871;-80
2023/10/23 07:06:49;;;;;;;8.80;5.90;;;13.10;99.90;;;;;;5093309;28;20473;-83
2023/10/23 07:09:17;;;;;;;8.37;6.50;;;13.10;99.90;;;;;;5098690;28;20824;-83
2023/10/23 07:11:44;;;;;;;6.17;5.30;;;13.10;99.90;;;;;;5093496;28;20461;-83
2023/10/23 07:14:11;;;;;;;5.70;5.20;;;13.20;99.90;;;;;;5093066;28;20784;-83
2023/10/23 07:16:40;;;;;;;5.25;4.60;;;13.20;99.90;;;;;;5092276;28;20461;-80
2023/10/23 07:19:10;;;;;;;9.40;6.10;;;13.30;99.90;;;;;;5096021;28;20306;-83
2023/10/23 07:21:38;;;;;;;12.20;6.73;;;13.30;99.90;;;;;;5096659;28;20453;-81
2023/10/23 07:24:08;;;;;;;7.37;5.60;;;13.40;99.90;;;;;;5097571;28;20461;-83
2023/10/23 07:26:35;;;;;;;6.73;5.60;;;13.40;99.90;;;;;;5097359;28;20473;-83
2023/10/23 07:29:02;;;;;;;5.80;4.70;;;13.50;99.90;;;;;;5089265;28;20548;-82
2023/10/23 07:31:29;;;;;;;7.07;5.27;;;13.50;99.90;;;;;;5103193;28;20468;-82
2023/10/23 07:33:57;;;;;;;6.70;6.03;;;13.50;99.90;;;;;;5098119;28;20481;-80
2023/10/23 07:36:25;;;;;;;6.20;4.60;;;13.60;99.90;;;;;;5099098;28;20804;-81
2023/10/23 07:38:52;;;;;;;7.80;5.17;;;13.60;99.90;;;;;;5099870;28;20477;-80
2023/10/23 07:41:19;;;;;;;5.67;5.10;;;13.70;99.90;;;;;;5097075;28;20541;-79
2023/10/23 07:43:46;;;;;;;5.37;4.70;;;13.70;99.90;;;;;;5096083;28;20477;-80
2023/10/23 07:46:14;;;;;;;5.57;4.73;;;13.70;99.90;;;;;;5096861;28;20479;-80
2023/10/23 07:48:41;;;;;;;9.13;6.87;;;13.80;99.90;;;;;;5095977;28;20469;-83
2023/10/23 07:51:08;;;;;;;5.60;5.07;;;13.80;99.90;;;;;;5097035;28;20485;-83
2023/10/23 07:53:41;;;;;;;5.10;4.70;;;13.90;99.90;;;;;;5096813;28;20852;-83
2023/10/23 07:56:08;;;;;;;6.47;5.47;;;13.90;99.90;;;;;;5096235;28;20477;-83
2023/10/23 07:58:39;;;;;;;5.57;4.90;;;13.90;99.90;;;;;;5087975;28;20534;-81
2023/10/23 08:01:11;;;;;;;9.67;6.70;;;14.00;99.90;;;;;;5095775;28;20851;-83
2023/10/23 08:03:38;;;;;;;6.57;5.83;;;14.00;99.90;;;;;;5095877;28;20574;-83
2023/10/23 08:06:19;;;;;;;7.50;6.80;;;14.10;99.90;;;;;;5097418;28;20461;-83
2023/10/23 08:08:47;;;;;;;7.03;6.33;;;14.10;99.90;;;;;;5095218;28;20518;-81
2023/10/23 08:11:14;;;;;;;6.27;5.67;;;14.10;99.90;;;;;;5096753;28;20557;-80
2023/10/23 08:13:41;;;;;;;7.77;7.07;;;14.10;99.90;;;;;;5099983;28;20861;-83
2023/10/23 08:16:10;;;;;;;9.80;6.97;;;14.20;99.90;;;;;;5098368;28;20469;-80
2023/10/23 08:18:37;;;;;;;7.70;6.70;;;14.20;99.90;;;;;;5096631;28;20468;-81
2023/10/23 08:21:12;;;;;;;7.87;7.07;;;14.20;99.90;;;;;;5116402;28;20480;-83
2023/10/23 08:23:52;;;;;;;6.97;6.27;;;14.30;99.90;;;;;;5114603;28;20479;-80
2023/10/23 08:26:21;;;;;;;5.80;5.30;;;14.30;99.90;;;;;;5116631;28;20474;-80
2023/10/23 08:28:52;;;;;;;6.80;6.10;;;14.40;99.90;;;;;;5097927;28;20824;-80
2023/10/23 08:31:19;;;;;;;7.13;5.00;;;14.40;99.90;;;;;;5115304;28;20498;-81
2023/10/23 08:33:47;;;;;;;6.93;6.30;;;14.40;99.90;;;;;;5104898;28;20484;-84
2023/10/23 08:36:14;;;;;;;6.13;5.63;;;14.50;99.90;;;;;;5115412;28;20483;-83
2023/10/23 08:38:41;;;;;;;6.47;5.87;;;14.50;99.90;;;;;;5115388;28;20503;-84
2023/10/23 08:41:11;;;;;;;7.07;6.47;;;14.50;99.90;;;;;;5116027;28;20547;-83
2023/10/23 08:43:40;;;;;;;6.27;5.77;;;14.50;99.90;;;;;;5104915;28;20978;-83
2023/10/23 08:46:29;;;;;;;8.10;7.23;;;14.60;99.90;;;;;;5095651;28;20480;-83
2023/10/23 08:48:56;;;;;;;9.00;6.80;;;14.60;99.90;;;;;;5094829;28;20450;-80
2023/10/23 08:51:24;;;;;;;8.33;6.23;;;14.60;99.90;;;;;;5095134;28;20495;-83
2023/10/23 08:53:59;;;;;;;5.47;4.97;;;14.70;99.90;;;;;;5095028;28;20493;-84
2023/10/23 08:56:27;;;;;;;6.60;6.00;;;14.70;99.90;;;;;;5094814;28;20503;-84
2023/10/23 08:59:31;;;;;;;5.80;5.30;;;14.70;99.90;;;;;;5094688;28;20469;-83
2023/10/23 09:01:59;;;;;;;6.77;6.07;;;14.80;99.90;;;;;;5097660;28;20525;-83
2023/10/23 09:04:29;;;;;;;7.63;6.93;;;14.80;99.90;;;;;;5115416;28;20469;-84
2023/10/23 09:06:58;;;;;;;6.70;6.10;;;14.80;99.90;;;;;;5116266;28;20488;-83
2023/10/23 09:09:30;;;;;;;8.00;7.30;;;14.90;99.90;;;;;;5123915;27;21002;-83
2023/10/23 09:11:57;;;;;;;7.03;6.43;;;14.90;99.90;;;;;;5136181;27;20472;-82
2023/10/23 09:14:26;;;;;;;8.47;7.67;;;15.00;99.90;;;;;;5135262;27;20965;-83
2023/10/23 09:16:54;;;;;;;9.57;8.50;;;15.00;99.90;;;;;;5135987;27;20467;-83
2023/10/23 09:19:27;;;;;;;10.30;9.30;;;15.10;99.90;;;;;;5135169;27;20533;-80
2023/10/23 09:21:56;;;;;;;8.10;7.30;;;15.10;99.90;;;;;;5135913;27;20982;-83
2023/10/23 09:24:23;;;;;;;7.80;7.17;;;15.10;99.90;;;;;;5135223;27;20478;-82
2023/10/23 09:27:05;;;;;;;7.93;7.00;;;15.20;99.90;;;;;;5136098;27;20546;-83
2023/10/23 09:29:34;;;;;;;7.40;6.67;;;15.20;99.90;;;;;;5123298;27;20474;-83
2023/10/23 09:32:02;;;;;;;6.60;6.00;;;15.20;99.90;;;;;;5135350;27;20566;-83
2023/10/23 09:34:47;;;;;;;6.10;5.70;;;15.30;99.90;;;;;;5134302;27;20555;-83
2023/10/23 09:37:17;;;;;;;6.10;5.60;;;15.30;99.90;;;;;;5134748;27;20555;-83
2023/10/23 09:39:46;;;;;;;6.77;6.20;;;15.40;99.90;;;;;;5135402;27;20554;-80
2023/10/23 09:42:13;;;;;;;8.63;7.80;;;15.40;99.90;;;;;;5134219;27;21014;-80
2023/10/23 09:44:41;;;;;;;8.87;7.50;;;15.40;99.90;;;;;;5135078;27;20474;-80
2023/10/23 09:47:10;;;;;;;8.77;7.87;;;15.50;99.90;;;;;;5134878;27;20794;-80
2023/10/23 09:49:39;;;;;;;10.30;8.00;;;15.50;99.90;;;;;;5135633;27;20543;-83
2023/10/23 09:52:09;;;;;;;9.40;8.50;;;15.50;99.90;;;;;;5133766;27;20484;-83
2023/10/23 09:54:39;;;;;;;8.53;7.73;;;15.50;99.90;;;;;;5093565;27;20511;-83
2023/10/23 09:57:09;;;;;;;8.13;7.37;;;15.50;99.90;;;;;;5122037;27;20547;-83
2023/10/23 09:59:52;;;;;;;;;;;;;;;;;;;;;
2023/10/23 10:02:20;;;;;;;9.33;8.43;;;15.60;99.90;;;;;;5107181;27;20465;-80
2023/10/23 10:04:55;;;;;;;7.97;7.20;;;15.70;99.90;;;;;;5120597;27;20469;-83
2023/10/23 10:07:32;;;;;;;8.00;7.30;;;15.70;99.90;;;;;;5122821;27;20470;-79
2023/10/23 10:10:00;;;;;;;9.30;8.30;;;15.80;99.90;;;;;;5134436;27;20528;-80
2023/10/23 10:12:40;;;;;;;;;;;;;;;;;;;;;
2023/10/23 10:15:10;;;;;;;7.17;6.50;;;15.90;99.90;;;;;;5128049;27;20470;-84
2023/10/23 10:17:40;;;;;;;7.17;6.57;;;15.90;99.90;;;;;;5123526;27;20517;-80
2023/10/23 10:20:17;;;;;;;6.90;6.23;;;16.00;99.90;;;;;;5117384;27;20468;-80
2023/10/23 10:22:53;;;;;;;10.00;8.00;;;16.10;99.90;;;;;;5124319;27;20468;-80
2023/10/23 10:25:21;;;;;;;6.77;6.17;;;16.10;99.90;;;;;;5134461;27;20471;-80
2023/10/23 10:27:59;;;;;;;7.87;6.93;;;16.20;99.90;;;;;;5133280;27;20977;-83
2023/10/23 10:30:43;;;;;;;12.07;7.77;;;16.30;99.90;;;;;;5134516;27;20460;-84
2023/10/23 10:33:14;;;;;;;6.87;6.30;;;16.30;99.90;;;;;;5134024;27;20468;-84
2023/10/23 10:35:50;;;;;;;6.87;6.03;;;16.30;99.90;;;;;;5134411;27;20467;-81
2023/10/23 10:38:25;;;;;;;6.83;6.13;;;16.30;99.90;;;;;;5133070;27;20484;-80
2023/10/23 10:41:00;;;;;;;6.83;6.13;;;16.40;99.90;;;;;;5134711;27;20952;-83
2023/10/23 10:43:30;;;;;;;6.23;5.73;;;16.40;99.90;;;;;;5105891;27;21060;-84
2023/10/23 10:45:57;;;;;;;6.77;6.07;;;16.40;99.90;;;;;;5134888;27;20475;-81
2023/10/23 10:48:25;;;;;;;6.03;5.40;;;16.40;99.90;;;;;;5133856;27;20539;-81
2023/10/23 10:50:58;;;;;;;5.77;5.20;;;16.50;99.90;;;;;;5120614;27;20653;-81
2023/10/23 10:53:26;;;;;;;8.20;7.50;;;16.50;99.90;;;;;;5120026;27;20520;-81
2023/10/23 10:55:54;;;;;;;8.53;6.77;;;16.50;99.90;;;;;;5120050;27;20476;-80
2023/10/23 10:58:25;;;;;;;7.67;6.97;;;16.50;99.90;;;;;;5119701;28;20503;-80
2023/10/23 11:00:52;;;;;;;10.37;8.00;;;16.50;99.90;;;;;;5112330;28;20468;-80
2023/10/23 11:03:19;;;;;;;8.63;7.40;;;16.50;99.90;;;;;;5118910;28;20975;-83
2023/10/23 11:05:47;;;;;;;9.73;7.27;;;16.50;99.90;;;;;;5133690;28;20473;-84
2023/10/23 11:08:15;;;;;;;7.03;6.20;;;16.50;99.90;;;;;;5133060;28;20554;-83
2023/10/23 11:10:44;;;;;;;6.90;5.77;;;16.50;99.90;;;;;;5134121;28;20494;-83
2023/10/23 11:13:15;;;;;;;6.43;5.80;;;16.50;99.90;;;;;;5134152;28;20456;-83
2023/10/23 11:15:42;;;;;;;5.63;5.23;;;16.40;99.90;;;;;;5134157;28;20808;-84
2023/10/23 11:18:10;;;;;;;7.60;5.37;;;16.40;99.90;;;;;;5133181;28;20526;-79
2023/10/23 11:21:33;;;;;;;6.10;5.30;;;16.40;99.90;;;;;;5134169;28;20562;-80
2023/10/23 11:24:04;;;;;;;7.63;6.93;;;16.30;99.90;;;;;;5133863;28;20455;-80
2023/10/23 11:26:32;;;;;;;6.03;5.53;;;16.30;99.90;;;;;;5133755;28;20526;-84
2023/10/23 11:28:59;;;;;;;5.93;5.43;;;16.30;99.90;;;;;;5135045;28;20479;-80
2023/10/23 11:31:27;;;;;;;7.80;7.10;;;16.30;99.90;;;;;;5134464;28;20460;-79
2023/10/23 11:33:58;;;;;;;9.30;8.50;;;16.20;99.90;;;;;;5134071;28;20921;-79
2023/10/23 11:36:29;;;;;;;8.33;7.63;;;16.20;99.90;;;;;;5134719;28;20482;-80
2023/10/23 11:39:08;;;;;;;7.77;7.07;;;16.20;99.90;;;;;;5133920;28;20463;-83
2023/10/23 11:41:36;;;;;;;7.70;6.93;;;16.20;99.90;;;;;;5113630;28;20484;-83
2023/10/23 11:44:04;;;;;;;10.73;9.83;;;16.20;99.90;;;;;;5117302;28;20463;-82
2023/10/23 11:46:33;;;;;;;9.90;9.00;;;16.20;99.90;;;;;;5134557;28;20460;-79
2023/10/23 11:49:16;;;;;;;10.23;9.23;;;16.20;99.90;;;;;;5133670;28;20562;-80
2023/10/23 11:51:50;;;;;;;8.63;7.90;;;16.30;99.90;;;;;;5133157;28;21044;-84
2023/10/23 11:54:19;;;;;;;7.93;7.17;;;16.30;99.90;;;;;;5135007;28;20455;-84
2023/10/23 11:56:52;;;;;;;7.67;6.97;;;16.40;99.90;;;;;;5110246;28;20460;-83
2023/10/23 11:59:25;;;;;;;6.90;6.30;;;16.40;99.90;;;;;;5111219;28;20500;-84
2023/10/23 12:01:56;;;;;;;7.47;6.87;;;16.50;99.90;;;;;;5110039;28;20471;-83
2023/10/23 12:04:24;;;;;;;6.93;6.33;;;16.50;99.90;;;;;;5103154;28;20468;-83
2023/10/23 12:06:53;;;;;;;8.43;6.47;;;16.60;99.90;;;;;;5107028;27;20533;-81
2023/10/23 12:09:20;;;;;;;7.13;6.53;;;16.70;99.90;;;;;;5130033;27;20941;-82
2023/10/23 12:11:52;;;;;;;8.60;7.77;;;16.70;99.90;;;;;;5135045;27;20510;-83
2023/10/23 12:14:26;;;;;;;9.70;8.80;;;16.70;99.90;;;;;;5139874;27;20724;-84
2023/10/23 12:16:53;;;;;;;10.20;9.20;;;16.80;99.90;;;;;;5117481;27;20541;-79
2023/10/23 12:19:20;;;;;;;8.83;7.97;;;16.80;99.90;;;;;;5132808;27;20459;-83
2023/10/23 12:21:47;;;;;;;10.73;9.83;;;16.80;99.90;;;;;;5136953;27;20472;-84
2023/10/23 12:26:51;;;;;;;8.53;7.73;;;16.90;99.90;;;;;;5811984;22;20434;-83
2023/10/23 12:29:29;;;;;;;7.70;6.90;;;17.00;99.90;;;;;;5072480;28;20524;-80
2023/10/23 12:32:03;;;;;;;7.60;7.00;;;17.00;99.90;;;;;;5068606;28;20518;-80
2023/10/23 12:34:35;;;;;;;6.53;5.93;;;17.00;99.90;;;;;;5068106;28;20463;-83
2023/10/23 12:37:04;;;;;;;5.93;5.17;;;17.00;99.90;;;;;;5077755;28;20527;-83
2023/10/23 12:39:31;;;;;;;5.27;4.87;;;17.00;99.90;;;;;;5070633;28;20545;-80
2023/10/23 12:41:59;;;;;;;4.97;4.57;;;17.00;99.90;;;;;;5075747;28;20474;-82
2023/10/23 12:44:26;;;;;;;5.10;4.70;;;17.00;99.90;;;;;;5061944;28;20478;-84
2023/10/23 12:46:54;;;;;;;5.03;4.63;;;17.00;99.90;;;;;;5083226;28;20478;-84
2023/10/23 12:49:21;;;;;;;3.90;3.60;;;17.00;99.90;;;;;;5065290;28;20470;-83
2023/10/23 12:51:48;;;;;;;4.13;3.83;;;17.00;99.90;;;;;;5065216;28;20483;-82
2023/10/23 12:54:15;;;;;;;4.10;3.80;;;17.00;99.90;;;;;;5074652;28;20517;-83
2023/10/23 12:56:42;;;;;;;5.53;5.13;;;16.90;99.90;;;;;;5074127;28;20978;-83
2023/10/23 12:59:12;;;;;;;5.13;4.73;;;16.90;99.90;;;;;;5075153;28;20545;-83
2023/10/23 13:01:39;;;;;;;5.33;5.03;;;16.90;99.90;;;;;;5062609;28;21021;-82